sensor_id;sensor_type;location;lat;lon;timestamp;pressure;altitude;pressure_sealevel;temperature;humidity
23223;BME280;11780;13.904;100.620;2023-07-22T00:00:38;100934.03;;;31.28;71.37
23223;BME280;11780;13.904;100.620;2023-07-22T00:03:09;100927.88;;;31.32;71.27
23223;BME280;11780;13.904;100.620;2023-07-22T00:05:40;100926.09;;;31.36;71.56
23223;BME280;11780;13.904;100.620;2023-07-22T00:08:11;100913.41;;;31.35;71.75
23223;BME280;11780;13.904;100.620;2023-07-22T00:10:42;100909.31;;;31.32;71.80
23223;BME280;11780;13.904;100.620;2023-07-22T00:13:12;100912.44;;;31.31;71.89
23223;BME280;11780;13.904;100.620;2023-07-22T00:15:43;100908.84;;;31.39;71.43
23223;BME280;11780;13.904;100.620;2023-07-22T00:18:13;100915.38;;;31.43;71.82
23223;BME280;11780;13.904;100.620;2023-07-22T00:20:44;100911.31;;;31.40;71.97
23223;BME280;11780;13.904;100.620;2023-07-22T00:23:16;100915.69;;;31.33;71.80
23223;BME280;11780;13.904;100.620;2023-07-22T00:25:47;100914.84;;;31.32;71.74
23223;BME280;11780;13.904;100.620;2023-07-22T00:28:18;100918.44;;;31.33;71.60
23223;BME280;11780;13.904;100.620;2023-07-22T00:30:49;100918.75;;;31.31;71.44
23223;BME280;11780;13.904;100.620;2023-07-22T00:33:19;100919.25;;;31.33;71.70
23223;BME280;11780;13.904;100.620;2023-07-22T00:35:50;100920.56;;;31.27;71.63
23223;BME280;11780;13.904;100.620;2023-07-22T00:38:21;100927.69;;;31.19;71.86
23223;BME280;11780;13.904;100.620;2023-07-22T00:40:52;100940.53;;;31.24;71.55
23223;BME280;11780;13.904;100.620;2023-07-22T00:43:25;100939.06;;;31.26;71.73
23223;BME280;11780;13.904;100.620;2023-07-22T00:45:56;100942.00;;;31.30;72.02
23223;BME280;11780;13.904;100.620;2023-07-22T00:48:27;100941.69;;;31.32;71.70
23223;BME280;11780;13.904;100.620;2023-07-22T00:50:58;100941.69;;;31.32;72.44
23223;BME280;11780;13.904;100.620;2023-07-22T00:53:28;100939.56;;;31.28;71.12
23223;BME280;11780;13.904;100.620;2023-07-22T00:55:59;100936.91;;;31.14;71.23
23223;BME280;11780;13.904;100.620;2023-07-22T00:58:30;100944.28;;;31.19;70.83
23223;BME280;11780;13.904;100.620;2023-07-22T01:01:00;100946.53;;;31.17;71.19
23223;BME280;11780;13.904;100.620;2023-07-22T01:03:31;100949.84;;;30.96;71.88
23223;BME280;11780;13.904;100.620;2023-07-22T01:06:02;100958.47;;;30.95;71.84
23223;BME280;11780;13.904;100.620;2023-07-22T01:08:32;100959.13;;;31.01;71.96
23223;BME280;11780;13.904;100.620;2023-07-22T01:11:04;100965.78;;;30.99;72.36
23223;BME280;11780;13.904;100.620;2023-07-22T01:13:35;100965.91;;;30.94;71.79
23223;BME280;11780;13.904;100.620;2023-07-22T01:16:07;100970.22;;;31.09;71.52
23223;BME280;11780;13.904;100.620;2023-07-22T01:18:38;100963.38;;;31.07;71.63
23223;BME280;11780;13.904;100.620;2023-07-22T01:21:10;100969.09;;;31.10;72.05
23223;BME280;11780;13.904;100.620;2023-07-22T01:23:42;100968.72;;;31.03;72.08
23223;BME280;11780;13.904;100.620;2023-07-22T01:26:13;100967.28;;;31.06;72.40
23223;BME280;11780;13.904;100.620;2023-07-22T01:28:46;100964.34;;;31.11;71.85
23223;BME280;11780;13.904;100.620;2023-07-22T01:31:16;100964.13;;;31.21;71.65
23223;BME280;11780;13.904;100.620;2023-07-22T01:33:47;100979.38;;;31.19;72.05
23223;BME280;11780;13.904;100.620;2023-07-22T01:36:22;100984.91;;;31.27;71.28
23223;BME280;11780;13.904;100.620;2023-07-22T01:38:53;100971.44;;;31.26;71.47
23223;BME280;11780;13.904;100.620;2023-07-22T01:41:23;100971.09;;;31.27;71.08
23223;BME280;11780;13.904;100.620;2023-07-22T01:43:54;100963.13;;;31.17;71.38
23223;BME280;11780;13.904;100.620;2023-07-22T01:46:24;100971.09;;;31.27;70.57
23223;BME280;11780;13.904;100.620;2023-07-22T01:48:55;100980.06;;;31.33;70.22
23223;BME280;11780;13.904;100.620;2023-07-22T01:51:26;100980.41;;;31.40;69.87
23223;BME280;11780;13.904;100.620;2023-07-22T01:53:57;100977.94;;;31.30;70.24
23223;BME280;11780;13.904;100.620;2023-07-22T01:56:28;100973.72;;;31.33;70.25
23223;BME280;11780;13.904;100.620;2023-07-22T01:58:58;100977.28;;;31.33;70.14
23223;BME280;11780;13.904;100.620;2023-07-22T02:01:29;100979.09;;;31.38;70.11
23223;BME280;11780;13.904;100.620;2023-07-22T02:04:00;100976.63;;;31.27;69.40
23223;BME280;11780;13.904;100.620;2023-07-22T02:06:31;100986.72;;;31.32;68.91
23223;BME280;11780;13.904;100.620;2023-07-22T02:09:01;100984.13;;;31.27;68.96
23223;BME280;11780;13.904;100.620;2023-07-22T02:11:38;100993.19;;;31.19;68.55
23223;BME280;11780;13.904;100.620;2023-07-22T02:14:08;100980.00;;;31.16;69.03
23223;BME280;11780;13.904;100.620;2023-07-22T02:16:38;100974.00;;;31.22;68.82
23223;BME280;11780;13.904;100.620;2023-07-22T02:19:09;100975.81;;;31.18;69.11
23223;BME280;11780;13.904;100.620;2023-07-22T02:21:41;100965.72;;;31.22;70.03
23223;BME280;11780;13.904;100.620;2023-07-22T02:24:14;100964.44;;;31.28;70.02
23223;BME280;11780;13.904;100.620;2023-07-22T02:26:45;100962.81;;;31.27;70.18
23223;BME280;11780;13.904;100.620;2023-07-22T02:29:15;100965.56;;;31.27;70.07
23223;BME280;11780;13.904;100.620;2023-07-22T02:31:46;100970.81;;;31.29;70.19
23223;BME280;11780;13.904;100.620;2023-07-22T02:34:55;100971.59;;;31.29;70.35
23223;BME280;11780;13.904;100.620;2023-07-22T02:37:26;100978.59;;;31.27;70.44
23223;BME280;11780;13.904;100.620;2023-07-22T02:39:56;100985.06;;;31.22;70.09
23223;BME280;11780;13.904;100.620;2023-07-22T02:42:26;100976.47;;;31.24;69.92
23223;BME280;11780;13.904;100.620;2023-07-22T02:44:57;100979.22;;;31.24;70.04
23223;BME280;11780;13.904;100.620;2023-07-22T02:47:27;100979.72;;;31.26;69.98
23223;BME280;11780;13.904;100.620;2023-07-22T02:49:58;100973.22;;;31.31;69.71
23223;BME280;11780;13.904;100.620;2023-07-22T02:52:28;100971.09;;;31.27;70.03
23223;BME280;11780;13.904;100.620;2023-07-22T02:55:09;100973.41;;;31.34;70.28
23223;BME280;11780;13.904;100.620;2023-07-22T02:57:43;100975.53;;;31.37;70.40
23223;BME280;11780;13.904;100.620;2023-07-22T03:00:15;100973.56;;;31.38;70.15
23223;BME280;11780;13.904;100.620;2023-07-22T03:02:56;100974.06;;;31.40;69.92
23223;BME280;11780;13.904;100.620;2023-07-22T03:05:34;100969.66;;;31.39;69.66
23223;BME280;11780;13.904;100.620;2023-07-22T03:08:05;100958.59;;;31.39;69.59
23223;BME280;11780;13.904;100.620;2023-07-22T03:10:37;100951.31;;;31.43;69.60
23223;BME280;11780;13.904;100.620;2023-07-22T03:13:07;100957.16;;;31.41;69.23
23223;BME280;11780;13.904;100.620;2023-07-22T03:15:37;100961.22;;;31.44;69.36
23223;BME280;11780;13.904;100.620;2023-07-22T03:18:08;100961.56;;;31.51;69.76
23223;BME280;11780;13.904;100.620;2023-07-22T03:20:39;100957.16;;;31.41;69.80
23223;BME280;11780;13.904;100.620;2023-07-22T03:23:11;100954.41;;;31.41;69.83
23223;BME280;11780;13.904;100.620;2023-07-22T03:25:41;100944.78;;;31.48;69.27
23223;BME280;11780;13.904;100.620;2023-07-22T03:28:12;100946.28;;;31.45;69.36
23223;BME280;11780;13.904;100.620;2023-07-22T03:30:42;100931.47;;;31.50;68.93
23223;BME280;11780;13.904;100.620;2023-07-22T03:33:13;100919.41;;;31.46;68.48
23223;BME280;11780;13.904;100.620;2023-07-22T03:35:44;100915.22;;;31.48;68.29
23223;BME280;11780;13.904;100.620;2023-07-22T03:38:15;100906.78;;;31.44;68.20
23223;BME280;11780;13.904;100.620;2023-07-22T03:40:46;100888.06;;;31.50;67.99
23223;BME280;11780;13.904;100.620;2023-07-22T03:43:17;100889.03;;;31.54;67.90
23223;BME280;11780;13.904;100.620;2023-07-22T03:45:47;100881.22;;;31.56;68.09
23223;BME280;11780;13.904;100.620;2023-07-22T03:48:48;100869.66;;;31.54;68.61
23223;BME280;11780;13.904;100.620;2023-07-22T03:51:19;100867.41;;;31.56;68.26
23223;BME280;11780;13.904;100.620;2023-07-22T03:53:49;100858.28;;;31.65;67.37
23223;BME280;11780;13.904;100.620;2023-07-22T03:56:20;100861.88;;;31.65;67.72
23223;BME280;11780;13.904;100.620;2023-07-22T03:58:52;100852.28;;;31.63;67.81
23223;BME280;11780;13.904;100.620;2023-07-22T04:01:22;100846.09;;;31.66;67.76
23223;BME280;11780;13.904;100.620;2023-07-22T04:03:53;100853.09;;;31.72;67.23
23223;BME280;11780;13.904;100.620;2023-07-22T04:06:24;100848.06;;;31.74;66.62
23223;BME280;11780;13.904;100.620;2023-07-22T04:08:55;100848.22;;;31.78;66.20
23223;BME280;11780;13.904;100.620;2023-07-22T04:11:25;100841.22;;;31.80;66.16
23223;BME280;11780;13.904;100.620;2023-07-22T04:13:56;100829.53;;;31.83;66.29
23223;BME280;11780;13.904;100.620;2023-07-22T04:16:27;100838.44;;;31.89;66.44
23223;BME280;11780;13.904;100.620;2023-07-22T04:18:58;100842.16;;;31.93;66.46
23223;BME280;11780;13.904;100.620;2023-07-22T04:21:28;100840.72;;;31.96;66.45
23223;BME280;11780;13.904;100.620;2023-07-22T04:23:58;100830.63;;;32.00;65.97
23223;BME280;11780;13.904;100.620;2023-07-22T04:26:30;100841.19;;;31.98;66.02
23223;BME280;11780;13.904;100.620;2023-07-22T04:29:01;100838.25;;;32.03;66.13
23223;BME280;11780;13.904;100.620;2023-07-22T04:31:33;100834.69;;;31.94;66.74
23223;BME280;11780;13.904;100.620;2023-07-22T04:34:05;100835.03;;;31.92;66.92
23223;BME280;11780;13.904;100.620;2023-07-22T04:36:35;100834.22;;;31.92;67.54
23223;BME280;11780;13.904;100.620;2023-07-22T04:39:06;100835.81;;;32.01;66.42
23223;BME280;11780;13.904;100.620;2023-07-22T04:41:39;100831.75;;;32.08;65.95
23223;BME280;11780;13.904;100.620;2023-07-22T04:44:10;100835.47;;;32.03;65.92
23223;BME280;11780;13.904;100.620;2023-07-22T04:46:40;100824.88;;;32.05;66.09
23223;BME280;11780;13.904;100.620;2023-07-22T04:49:10;100824.88;;;32.05;66.24
23223;BME280;11780;13.904;100.620;2023-07-22T04:51:41;100831.06;;;32.02;65.88
23223;BME280;11780;13.904;100.620;2023-07-22T04:54:12;100824.75;;;32.01;66.39
23223;BME280;11780;13.904;100.620;2023-07-22T04:56:43;100819.34;;;32.05;66.53
23223;BME280;11780;13.904;100.620;2023-07-22T04:59:14;100826.34;;;32.11;65.98
23223;BME280;11780;13.904;100.620;2023-07-22T05:01:45;100821.81;;;32.07;66.56
23223;BME280;11780;13.904;100.620;2023-07-22T05:04:15;100835.44;;;32.12;66.37
23223;BME280;11780;13.904;100.620;2023-07-22T05:06:45;100818.34;;;32.10;66.27
23223;BME280;11780;13.904;100.620;2023-07-22T05:09:16;100829.25;;;32.15;66.20
23223;BME280;11780;13.904;100.620;2023-07-22T05:11:47;100832.16;;;32.18;65.79
23223;BME280;11780;13.904;100.620;2023-07-22T05:14:17;100829.09;;;32.20;65.05
23223;BME280;11780;13.904;100.620;2023-07-22T05:16:47;100831.53;;;32.13;65.04
23223;BME280;11780;13.904;100.620;2023-07-22T05:19:18;100839.66;;;32.18;65.60
23223;BME280;11780;13.904;100.620;2023-07-22T05:21:50;100827.50;;;32.10;66.01
23223;BME280;11780;13.904;100.620;2023-07-22T05:24:20;100835.78;;;32.10;66.58
23223;BME280;11780;13.904;100.620;2023-07-22T05:26:51;100840.19;;;32.11;66.83
23223;BME280;11780;13.904;100.620;2023-07-22T05:29:35;100839.34;;;32.11;66.92
23223;BME280;11780;13.904;100.620;2023-07-22T05:32:06;100822.59;;;32.07;67.67
23223;BME280;11780;13.904;100.620;2023-07-22T05:34:57;100826.69;;;32.01;67.81
23223;BME280;11780;13.904;100.620;2023-07-22T05:37:27;100827.97;;;32.12;67.39
23223;BME280;11780;13.904;100.620;2023-07-22T05:39:59;100826.16;;;32.16;67.30
23223;BME280;11780;13.904;100.620;2023-07-22T05:42:30;100826.34;;;32.11;67.38
23223;BME280;11780;13.904;100.620;2023-07-22T05:45:02;100820.16;;;32.14;67.69
23223;BME280;11780;13.904;100.620;2023-07-22T05:47:32;100825.22;;;32.12;67.54
23223;BME280;11780;13.904;100.620;2023-07-22T05:50:03;100818.84;;;32.12;67.94
23223;BME280;11780;13.904;100.620;2023-07-22T05:52:34;100815.91;;;32.17;67.95
23223;BME280;11780;13.904;100.620;2023-07-22T05:55:04;100811.81;;;32.23;67.70
23223;BME280;11780;13.904;100.620;2023-07-22T05:57:35;100807.59;;;32.17;67.19
23223;BME280;11780;13.904;100.620;2023-07-22T06:00:07;100804.66;;;32.22;67.80
23223;BME280;11780;13.904;100.620;2023-07-22T06:02:40;100801.06;;;32.22;67.52
23223;BME280;11780;13.904;100.620;2023-07-22T06:05:10;100803.69;;;32.18;67.82
23223;BME280;11780;13.904;100.620;2023-07-22T06:07:41;100793.25;;;32.24;67.33
23223;BME280;11780;13.904;100.620;2023-07-22T06:10:12;100788.50;;;32.24;67.50
23223;BME280;11780;13.904;100.620;2023-07-22T06:12:43;100782.19;;;32.24;67.01
23223;BME280;11780;13.904;100.620;2023-07-22T06:15:13;100782.69;;;32.17;67.73
23223;BME280;11780;13.904;100.620;2023-07-22T06:17:44;100769.13;;;32.24;67.64
23223;BME280;11780;13.904;100.620;2023-07-22T06:20:14;100764.44;;;32.25;68.01
23223;BME280;11780;13.904;100.620;2023-07-22T06:22:45;100760.22;;;32.27;68.00
23223;BME280;11780;13.904;100.620;2023-07-22T06:25:15;100757.78;;;32.26;67.77
23223;BME280;11780;13.904;100.620;2023-07-22T06:27:46;100749.97;;;32.28;67.43
23223;BME280;11780;13.904;100.620;2023-07-22T06:30:17;100749.97;;;32.28;67.37
23223;BME280;11780;13.904;100.620;2023-07-22T06:32:47;100739.38;;;32.21;67.57
23223;BME280;11780;13.904;100.620;2023-07-22T06:35:17;100731.38;;;32.28;67.06
23223;BME280;11780;13.904;100.620;2023-07-22T06:37:48;100729.09;;;32.30;67.13
23223;BME280;11780;13.904;100.620;2023-07-22T06:40:18;100721.16;;;32.29;66.91
23223;BME280;11780;13.904;100.620;2023-07-22T06:42:48;100714.91;;;32.32;66.86
23223;BME280;11780;13.904;100.620;2023-07-22T06:45:19;100715.59;;;32.29;66.47
23223;BME280;11780;13.904;100.620;2023-07-22T06:47:49;100702.91;;;32.28;66.86
23223;BME280;11780;13.904;100.620;2023-07-22T06:50:20;100698.94;;;32.38;66.58
23223;BME280;11780;13.904;100.620;2023-07-22T06:52:50;100694.69;;;32.40;65.78
23223;BME280;11780;13.904;100.620;2023-07-22T06:55:20;100691.56;;;32.42;66.12
23223;BME280;11780;13.904;100.620;2023-07-22T06:57:51;100692.28;;;32.39;66.17
23223;BME280;11780;13.904;100.620;2023-07-22T07:00:21;100695.22;;;32.33;66.47
23223;BME280;11780;13.904;100.620;2023-07-22T07:02:51;100681.66;;;32.41;66.58
23223;BME280;11780;13.904;100.620;2023-07-22T07:05:22;100674.66;;;32.43;65.27
23223;BME280;11780;13.904;100.620;2023-07-22T07:07:55;100670.25;;;32.42;65.39
23223;BME280;11780;13.904;100.620;2023-07-22T07:10:26;100667.75;;;32.49;64.85
23223;BME280;11780;13.904;100.620;2023-07-22T07:12:56;100658.69;;;32.40;65.98
23223;BME280;11780;13.904;100.620;2023-07-22T07:15:26;100654.31;;;32.39;65.88
23223;BME280;11780;13.904;100.620;2023-07-22T07:17:57;100648.78;;;32.39;66.61
23223;BME280;11780;13.904;100.620;2023-07-22T07:20:27;100630.06;;;32.36;66.71
23223;BME280;11780;13.904;100.620;2023-07-22T07:22:58;100624.22;;;32.38;66.47
23223;BME280;11780;13.904;100.620;2023-07-22T07:25:28;100625.34;;;32.37;66.71
23223;BME280;11780;13.904;100.620;2023-07-22T07:27:59;100632.50;;;32.38;66.81
23223;BME280;11780;13.904;100.620;2023-07-22T07:30:29;100630.59;;;32.29;67.29
23223;BME280;11780;13.904;100.620;2023-07-22T07:32:59;100629.13;;;32.32;67.61
23223;BME280;11780;13.904;100.620;2023-07-22T07:35:30;100624.06;;;32.34;67.63
23223;BME280;11780;13.904;100.620;2023-07-22T07:38:01;100618.31;;;32.39;67.96
23223;BME280;11780;13.904;100.620;2023-07-22T07:40:31;100614.13;;;32.33;67.66
23223;BME280;11780;13.904;100.620;2023-07-22T07:43:02;100622.72;;;32.40;67.40
23223;BME280;11780;13.904;100.620;2023-07-22T07:45:32;100630.34;;;32.43;67.63
23223;BME280;11780;13.904;100.620;2023-07-22T07:48:03;100630.66;;;32.42;67.84
23223;BME280;11780;13.904;100.620;2023-07-22T07:50:34;100629.81;;;32.50;67.63
23223;BME280;11780;13.904;100.620;2023-07-22T07:53:05;100627.38;;;32.48;67.25
23223;BME280;11780;13.904;100.620;2023-07-22T07:55:35;100632.91;;;32.48;66.92
23223;BME280;11780;13.904;100.620;2023-07-22T07:58:05;100626.56;;;32.48;66.72
23223;BME280;11780;13.904;100.620;2023-07-22T08:00:36;100629.25;;;32.57;66.69
23223;BME280;11780;13.904;100.620;2023-07-22T08:03:06;100624.28;;;32.50;66.72
23223;BME280;11780;13.904;100.620;2023-07-22T08:05:37;100617.91;;;32.49;66.62
23223;BME280;11780;13.904;100.620;2023-07-22T08:08:07;100617.44;;;32.47;66.54
23223;BME280;11780;13.904;100.620;2023-07-22T08:10:37;100614.00;;;32.50;66.54
23223;BME280;11780;13.904;100.620;2023-07-22T08:13:09;100615.41;;;32.57;66.17
23223;BME280;11780;13.904;100.620;2023-07-22T08:15:41;100614.16;;;32.54;66.63
23223;BME280;11780;13.904;100.620;2023-07-22T08:18:12;100612.19;;;32.55;66.50
23223;BME280;11780;13.904;100.620;2023-07-22T08:20:43;100617.25;;;32.53;66.98
23223;BME280;11780;13.904;100.620;2023-07-22T08:23:14;100617.91;;;32.49;66.96
23223;BME280;11780;13.904;100.620;2023-07-22T08:25:44;100614.94;;;32.55;67.16
23223;BME280;11780;13.904;100.620;2023-07-22T08:28:15;100615.75;;;32.55;67.62
23223;BME280;11780;13.904;100.620;2023-07-22T08:30:48;100618.97;;;32.57;67.16
23223;BME280;11780;13.904;100.620;2023-07-22T08:33:19;100634.31;;;32.55;67.29
23223;BME280;11780;13.904;100.620;2023-07-22T08:36:07;100639.66;;;32.60;67.46
23223;BME280;11780;13.904;100.620;2023-07-22T08:38:38;100638.66;;;32.64;67.55
23223;BME280;11780;13.904;100.620;2023-07-22T08:41:09;100643.91;;;32.57;68.05
23223;BME280;11780;13.904;100.620;2023-07-22T08:43:40;100652.09;;;32.54;68.29
23223;BME280;11780;13.904;100.620;2023-07-22T08:46:12;100644.72;;;32.58;68.06
23223;BME280;11780;13.904;100.620;2023-07-22T08:48:46;100648.97;;;32.55;67.77
23223;BME280;11780;13.904;100.620;2023-07-22T08:51:18;100637.75;;;32.52;67.90
23223;BME280;11780;13.904;100.620;2023-07-22T08:53:51;100628.44;;;32.56;67.70
23223;BME280;11780;13.904;100.620;2023-07-22T08:56:36;100608.06;;;32.61;67.47
23223;BME280;11780;13.904;100.620;2023-07-22T08:59:06;100591.44;;;32.61;67.39
23223;BME280;11780;13.904;100.620;2023-07-22T09:01:37;100590.63;;;32.60;67.31
23223;BME280;11780;13.904;100.620;2023-07-22T09:04:09;100577.25;;;32.62;67.38
23223;BME280;11780;13.904;100.620;2023-07-22T09:06:41;100576.53;;;32.53;67.56
23223;BME280;11780;13.904;100.620;2023-07-22T09:09:12;100573.88;;;32.57;67.35
23223;BME280;11780;13.904;100.620;2023-07-22T09:11:43;100575.22;;;32.50;67.57
23223;BME280;11780;13.904;100.620;2023-07-22T09:14:19;100581.59;;;32.51;67.46
23223;BME280;11780;13.904;100.620;2023-07-22T09:17:04;100583.22;;;32.52;67.15
23223;BME280;11780;13.904;100.620;2023-07-22T09:19:35;100568.91;;;32.50;67.46
23223;BME280;11780;13.904;100.620;2023-07-22T09:22:07;100570.91;;;32.41;67.61
23223;BME280;11780;13.904;100.620;2023-07-22T09:24:37;100575.03;;;32.56;67.61
23223;BME280;11780;13.904;100.620;2023-07-22T09:27:08;100581.44;;;32.69;67.03
23223;BME280;11780;13.904;100.620;2023-07-22T09:29:39;100595.97;;;32.65;67.25
23223;BME280;11780;13.904;100.620;2023-07-22T09:32:10;100601.81;;;32.64;67.08
23223;BME280;11780;13.904;100.620;2023-07-22T09:34:54;100606.22;;;32.65;66.98
23223;BME280;11780;13.904;100.620;2023-07-22T09:37:36;100605.69;;;32.50;67.09
23223;BME280;11780;13.904;100.620;2023-07-22T09:40:20;100611.22;;;32.50;67.71
23223;BME280;11780;13.904;100.620;2023-07-22T09:43:00;100624.00;;;32.43;68.02
23223;BME280;11780;13.904;100.620;2023-07-22T09:45:32;100630.34;;;32.43;68.14
23223;BME280;11780;13.904;100.620;2023-07-22T09:48:02;100640.75;;;32.46;68.83
23223;BME280;11780;13.904;100.620;2023-07-22T09:50:36;100649.38;;;32.45;69.21
23223;BME280;11780;13.904;100.620;2023-07-22T09:53:07;100643.19;;;32.48;69.38
23223;BME280;11780;13.904;100.620;2023-07-22T09:55:37;100638.66;;;32.43;70.04
23223;BME280;11780;13.904;100.620;2023-07-22T09:58:08;100637.50;;;32.44;70.35
23223;BME280;11780;13.904;100.620;2023-07-22T10:00:45;100641.44;;;32.43;70.07
23223;BME280;11780;13.904;100.620;2023-07-22T10:03:19;100644.66;;;32.45;70.39
23223;BME280;11780;13.904;100.620;2023-07-22T10:05:50;100653.09;;;32.49;70.46
23223;BME280;11780;13.904;100.620;2023-07-22T10:08:21;100648.53;;;32.53;70.92
23223;BME280;11780;13.904;100.620;2023-07-22T10:10:55;100647.50;;;32.58;70.94
23223;BME280;11780;13.904;100.620;2023-07-22T10:13:28;100638.59;;;32.52;71.60
23223;BME280;11780;13.904;100.620;2023-07-22T10:15:59;100640.22;;;32.53;71.70
23223;BME280;11780;13.904;100.620;2023-07-22T10:18:31;100640.66;;;32.55;71.94
23223;BME280;11780;13.904;100.620;2023-07-22T10:21:03;100661.53;;;32.53;72.24
23223;BME280;11780;13.904;100.620;2023-07-22T10:23:33;100688.06;;;32.54;72.61
23223;BME280;11780;13.904;100.620;2023-07-22T10:26:06;100688.56;;;32.56;73.15
23223;BME280;11780;13.904;100.620;2023-07-22T10:28:37;100701.75;;;32.59;73.27
23223;BME280;11780;13.904;100.620;2023-07-22T10:31:08;100718.66;;;32.57;73.59
23223;BME280;11780;13.904;100.620;2023-07-22T10:33:39;100715.38;;;32.64;73.94
23223;BME280;11780;13.904;100.620;2023-07-22T10:36:14;100709.16;;;32.67;73.96
23223;BME280;11780;13.904;100.620;2023-07-22T10:38:56;100709.56;;;32.57;74.52
23223;BME280;11780;13.904;100.620;2023-07-22T10:41:32;100720.63;;;32.57;74.81
23223;BME280;11780;13.904;100.620;2023-07-22T10:44:06;100726.00;;;32.62;74.55
23223;BME280;11780;13.904;100.620;2023-07-22T10:46:38;100738.22;;;32.61;74.27
23223;BME280;11780;13.904;100.620;2023-07-22T10:49:15;100754.59;;;32.45;73.92
23223;BME280;11780;13.904;100.620;2023-07-22T10:51:50;100746.66;;;32.34;73.78
23223;BME280;11780;13.904;100.620;2023-07-22T10:54:39;100735.66;;;32.26;74.17
23223;BME280;11780;13.904;100.620;2023-07-22T10:59:52;100730.78;;;32.14;73.92
23223;BME280;11780;13.904;100.620;2023-07-22T11:02:27;100749.16;;;32.18;73.77
23223;BME280;11780;13.904;100.620;2023-07-22T11:04:58;100749.16;;;32.18;74.02
23223;BME280;11780;13.904;100.620;2023-07-22T11:07:34;100741.53;;;32.15;73.98
23223;BME280;11780;13.904;100.620;2023-07-22T11:10:19;100746.94;;;32.03;74.41
23223;BME280;11780;13.904;100.620;2023-07-22T11:12:49;100772.00;;;32.07;73.96
23223;BME280;11780;13.904;100.620;2023-07-22T11:15:20;100789.47;;;31.89;73.70
23223;BME280;11780;13.904;100.620;2023-07-22T11:17:52;100800.66;;;31.93;73.92
23223;BME280;11780;13.904;100.620;2023-07-22T11:20:24;100808.16;;;31.93;74.16
23223;BME280;11780;13.904;100.620;2023-07-22T11:22:57;100808.97;;;31.93;73.52
23223;BME280;11780;13.904;100.620;2023-07-22T11:25:27;100830.47;;;31.87;73.65
23223;BME280;11780;13.904;100.620;2023-07-22T11:27:58;100848.69;;;31.88;73.71
23223;BME280;11780;13.904;100.620;2023-07-22T11:30:28;100860.22;;;31.99;73.53
23223;BME280;11780;13.904;100.620;2023-07-22T11:32:59;100858.31;;;31.91;74.12
23223;BME280;11780;13.904;100.620;2023-07-22T11:35:29;100862.69;;;31.92;73.91
23223;BME280;11780;13.904;100.620;2023-07-22T11:38:05;100863.34;;;31.98;74.09
23223;BME280;11780;13.904;100.620;2023-07-22T11:40:36;100858.44;;;31.95;74.29
23223;BME280;11780;13.904;100.620;2023-07-22T11:43:07;100855.56;;;31.82;73.82
23223;BME280;11780;13.904;100.620;2023-07-22T11:45:39;100862.38;;;31.76;73.72
23223;BME280;11780;13.904;100.620;2023-07-22T11:48:12;100849.69;;;31.75;74.14
23223;BME280;11780;13.904;100.620;2023-07-22T11:50:42;100856.50;;;31.86;73.86
23223;BME280;11780;13.904;100.620;2023-07-22T11:53:13;100850.66;;;31.79;73.82
23223;BME280;11780;13.904;100.620;2023-07-22T11:55:44;100850.66;;;31.79;73.86
23223;BME280;11780;13.904;100.620;2023-07-22T11:58:14;100835.03;;;31.66;73.45
23223;BME280;11780;13.904;100.620;2023-07-22T12:01:09;100838.28;;;31.68;73.01
23223;BME280;11780;13.904;100.620;2023-07-22T12:03:40;100831.94;;;31.50;73.44
23223;BME280;11780;13.904;100.620;2023-07-22T12:06:11;100820.56;;;31.60;72.80
23223;BME280;11780;13.904;100.620;2023-07-22T12:08:48;100816.19;;;31.50;72.54
23223;BME280;11780;13.904;100.620;2023-07-22T12:11:23;100814.88;;;31.48;72.18
23223;BME280;11780;13.904;100.620;2023-07-22T12:14:08;100806.56;;;31.56;72.58
23223;BME280;11780;13.904;100.620;2023-07-22T12:16:42;100799.25;;;31.61;73.14
23223;BME280;11780;13.904;100.620;2023-07-22T12:19:13;100803.00;;;31.56;73.55
23223;BME280;11780;13.904;100.620;2023-07-22T12:21:43;100802.84;;;31.52;73.71
23223;BME280;11780;13.904;100.620;2023-07-22T12:24:14;100809.19;;;31.53;73.08
23223;BME280;11780;13.904;100.620;2023-07-22T12:26:44;100809.81;;;31.58;72.93
23223;BME280;11780;13.904;100.620;2023-07-22T12:29:15;100818.94;;;31.50;73.13
23223;BME280;11780;13.904;100.620;2023-07-22T12:31:45;100817.47;;;31.44;72.90
23223;BME280;11780;13.904;100.620;2023-07-22T12:34:16;100819.91;;;31.46;73.05
23223;BME280;11780;13.904;100.620;2023-07-22T12:36:46;100822.38;;;31.47;73.75
23223;BME280;11780;13.904;100.620;2023-07-22T12:39:17;100822.03;;;31.49;73.52
23223;BME280;11780;13.904;100.620;2023-07-22T12:41:47;100834.88;;;31.53;73.08
23223;BME280;11780;13.904;100.620;2023-07-22T12:44:17;100842.34;;;31.53;73.25
23223;BME280;11780;13.904;100.620;2023-07-22T12:46:49;100849.03;;;31.43;73.62
23223;BME280;11780;13.904;100.620;2023-07-22T12:49:20;100853.25;;;31.40;73.61
23223;BME280;11780;13.904;100.620;2023-07-22T12:51:50;100855.53;;;31.47;73.29
23223;BME280;11780;13.904;100.620;2023-07-22T12:54:21;100864.63;;;31.48;73.67
23223;BME280;11780;13.904;100.620;2023-07-22T12:56:51;100862.69;;;31.39;74.09